Time;durP1;ratioP1;P1;durP2;ratioP2;P2;SDS_P1;SDS_P2;PMS_P1;PMS_P2;Temp;Humidity;BMP_temperature;BMP_pressure;BME280_temperature;BME280_humidity;BME280_pressure;Samples;Min_cycle;Max_cycle;Signal;HPM_P1;HPM_P2
2022/09/01 00:01:42;;;;;;;17.90;16.00;;;;;;;;;;5104663;27;20276;-69
2022/09/01 00:04:11;;;;;;;19.80;15.67;;;;;;;;;;5094734;27;20208;-69
2022/09/01 00:06:39;;;;;;;18.67;16.57;;;;;;;;;;5104337;27;20295;-67
2022/09/01 00:09:11;;;;;;;18.83;16.63;;;;;;;;;;5105608;27;20335;-69
2022/09/01 00:11:39;;;;;;;18.93;16.70;;;;;;;;;;5098402;27;20733;-67
2022/09/01 00:14:08;;;;;;;20.37;17.23;;;;;;;;;;5104703;27;20244;-69
2022/09/01 00:16:56;;;;;;;24.73;17.80;;;;;;;;;;5121318;27;20602;-69
2022/09/01 00:19:24;;;;;;;17.30;15.60;;;;;;;;;;5100255;27;20215;-69
2022/09/01 00:21:51;;;;;;;18.27;16.17;;;;;;;;;;5103033;27;20231;-68
2022/09/01 00:24:19;;;;;;;17.87;16.10;;;;;;;;;;5100219;27;20207;-68
2022/09/01 00:26:47;;;;;;;15.77;14.23;;;;;;;;;;5107886;27;20675;-69
2022/09/01 00:29:15;;;;;;;16.33;14.63;;;;;;;;;;5136519;27;20220;-69
2022/09/01 00:31:42;;;;;;;17.50;15.67;;;;;;;;;;5100671;27;20220;-69
2022/09/01 00:34:10;;;;;;;25.77;20.97;;;;;;;;;;5104257;27;20394;-68
2022/09/01 00:36:37;;;;;;;38.63;29.40;;;;;;;;;;5116171;27;20252;-69
2022/09/01 00:39:07;;;;;;;41.23;29.17;;;;;;;;;;5100194;27;20218;-68
2022/09/01 00:41:37;;;;;;;40.67;30.83;;;;;;;;;;5099344;27;23444;-69
2022/09/01 00:44:07;;;;;;;42.30;29.53;;;;;;;;;;5111009;27;20220;-68
2022/09/01 00:46:35;;;;;;;42.53;30.73;;;;;;;;;;5112674;27;20268;-69
2022/09/01 00:49:22;;;;;;;42.43;29.13;;;;;;;;;;5103779;27;20244;-68
2022/09/01 00:52:01;;;;;;;46.40;31.67;;;;;;;;;;5104234;27;20219;-67
2022/09/01 00:54:35;;;;;;;47.03;31.37;;;;;;;;;;5101783;27;20205;-67
2022/09/01 00:57:03;;;;;;;54.87;32.83;;;;;;;;;;5109739;27;20289;-69
2022/09/01 00:59:32;;;;;;;53.20;33.53;;;;;;;;;;5103967;27;20227;-69
2022/09/01 01:01:59;;;;;;;48.93;33.03;;;;;;;;;;5110627;27;20590;-69
2022/09/01 01:04:26;;;;;;;45.93;31.57;;;;;;;;;;5113084;27;20256;-68
2022/09/01 01:07:03;;;;;;;45.93;30.80;;;;;;;;;;5107585;27;20195;-67
2022/09/01 01:09:32;;;;;;;43.23;30.60;;;;;;;;;;5105614;27;20230;-69
2022/09/01 01:12:02;;;;;;;36.57;27.30;;;;;;;;;;5101037;27;20219;-69
2022/09/01 01:14:30;;;;;;;36.13;26.03;;;;;;;;;;5109253;27;20670;-69
2022/09/01 01:16:59;;;;;;;33.27;25.67;;;;;;;;;;5104910;27;20645;-68
2022/09/01 01:25:25;;;;;;;26.23;23.10;;;;;;;;;;5125117;27;20211;-69
2022/09/01 01:28:02;;;;;;;28.75;23.17;;;;;;;;;;5104674;27;20200;-68
2022/09/01 01:30:35;;;;;;;27.55;24.05;;;;;;;;;;5100080;27;20223;-69
2022/09/01 01:33:04;;;;;;;25.13;22.38;;;;;;;;;;5109404;27;20302;-69
2022/09/01 01:35:32;;;;;;;29.33;22.73;;;;;;;;;;5108107;27;20283;-68
2022/09/01 01:38:01;;;;;;;26.67;22.50;;;;;;;;;;5108130;27;20211;-68
2022/09/01 01:40:30;;;;;;;25.25;21.80;;;;;;;;;;5108417;27;20206;-68
2022/09/01 01:43:00;;;;;;;27.35;22.38;;;;;;;;;;5105015;27;20620;-69
2022/09/01 01:45:27;;;;;;;25.45;20.88;;;;;;;;;;5106061;27;20276;-69
2022/09/01 01:47:55;;;;;;;28.57;22.97;;;;;;;;;;5100809;27;20303;-68
2022/09/01 01:50:25;;;;;;;22.50;19.90;;;;;;;;;;5105500;27;20227;-68
2022/09/01 01:52:53;;;;;;;23.27;18.75;;;;;;;;;;5104286;27;20264;-69
2022/09/01 01:55:27;;;;;;;20.88;18.67;;;;;;;;;;5106827;27;20206;-67
2022/09/01 01:57:55;;;;;;;20.98;18.63;;;;;;;;;;5105184;27;20203;-68
2022/09/01 02:00:25;;;;;;;20.23;17.95;;;;;;;;;;5101325;27;20203;-69
2022/09/01 02:02:57;;;;;;;19.60;17.58;;;;;;;;;;5109967;27;20670;-68
2022/09/01 02:05:32;;;;;;;20.95;18.65;;;;;;;;;;5101362;27;20204;-69
2022/09/01 02:08:03;;;;;;;22.60;18.58;;;;;;;;;;5103607;27;20616;-67
2022/09/01 02:10:35;;;;;;;21.05;18.20;;;;;;;;;;5117270;27;20318;-68
2022/09/01 02:13:06;;;;;;;22.10;17.88;;;;;;;;;;5103384;27;20223;-68
2022/09/01 02:15:41;;;;;;;21.52;17.95;;;;;;;;;;5110919;27;20203;-68
2022/09/01 02:18:09;;;;;;;22.92;18.63;;;;;;;;;;5102223;27;20820;-69
2022/09/01 02:20:37;;;;;;;19.73;17.70;;;;;;;;;;5103993;27;20677;-68
2022/09/01 02:23:09;;;;;;;20.92;17.13;;;;;;;;;;5092200;27;20309;-69
2022/09/01 02:25:42;;;;;;;20.40;17.98;;;;;;;;;;5104448;27;20212;-67
2022/09/01 02:28:31;;;;;;;20.17;18.08;;;;;;;;;;5102525;27;20253;-69
2022/09/01 02:31:00;;;;;;;21.80;18.70;;;;;;;;;;5106246;27;20268;-68
2022/09/01 02:33:29;;;;;;;20.58;17.30;;;;;;;;;;5103025;27;20223;-69
2022/09/01 02:36:01;;;;;;;21.17;18.88;;;;;;;;;;5108391;27;20574;-69
2022/09/01 02:38:32;;;;;;;23.90;19.98;;;;;;;;;;5106422;27;21324;-69
2022/09/01 02:41:01;;;;;;;24.08;19.75;;;;;;;;;;5105751;27;20289;-68
2022/09/01 02:43:30;;;;;;;21.02;18.83;;;;;;;;;;5092913;27;20195;-68
2022/09/01 02:46:02;;;;;;;22.88;19.65;;;;;;;;;;5101355;27;20203;-68
2022/09/01 02:48:36;;;;;;;24.38;20.45;;;;;;;;;;5097548;27;20195;-69
2022/09/01 02:51:12;;;;;;;23.48;20.17;;;;;;;;;;5102952;27;20227;-69
2022/09/01 02:53:41;;;;;;;23.00;19.92;;;;;;;;;;5110865;27;20210;-69
2022/09/01 02:56:12;;;;;;;23.38;20.50;;;;;;;;;;5106060;27;20713;-69
2022/09/01 02:58:44;;;;;;;24.92;21.77;;;;;;;;;;5124349;27;20299;-68
2022/09/01 03:01:23;;;;;;;25.70;22.40;;;;;;;;;;5108876;27;20223;-69
2022/09/01 03:03:52;;;;;;;24.63;21.38;;;;;;;;;;5106355;28;20211;-68
2022/09/01 03:06:22;;;;;;;24.05;20.98;;;;;;;;;;5106923;27;20203;-69
2022/09/01 03:08:51;;;;;;;23.38;20.80;;;;;;;;;;5107704;27;20809;-69
2022/09/01 03:11:18;;;;;;;22.48;19.08;;;;;;;;;;5106232;27;20223;-68
2022/09/01 03:13:46;;;;;;;22.42;19.65;;;;;;;;;;5110208;27;20224;-69
2022/09/01 03:16:13;;;;;;;23.10;19.63;;;;;;;;;;5108058;27;20206;-68
2022/09/01 03:18:44;;;;;;;23.08;20.52;;;;;;;;;;5097059;28;20227;-68
2022/09/01 03:21:15;;;;;;;22.77;20.35;;;;;;;;;;5102831;28;20288;-69
2022/09/01 03:23:44;;;;;;;22.80;19.85;;;;;;;;;;5097947;27;20211;-69
2022/09/01 03:26:13;;;;;;;22.52;20.10;;;;;;;;;;5105028;28;20654;-68
2022/09/01 03:28:40;;;;;;;22.55;20.00;;;;;;;;;;5100261;28;20215;-67
2022/09/01 03:31:08;;;;;;;25.48;20.27;;;;;;;;;;5103180;28;20249;-69
2022/09/01 03:33:35;;;;;;;23.42;20.02;;;;;;;;;;5101596;27;20203;-67
2022/09/01 03:36:04;;;;;;;23.25;19.95;;;;;;;;;;5104853;27;20199;-67
2022/09/01 03:38:42;;;;;;;24.73;22.05;;;;;;;;;;5106257;28;20299;-67
2022/09/01 03:41:11;;;;;;;25.35;21.77;;;;;;;;;;5104515;28;20235;-68
2022/09/01 03:43:40;;;;;;;23.30;20.80;;;;;;;;;;5104121;27;20247;-68
2022/09/01 03:46:23;;;;;;;23.90;20.67;;;;;;;;;;5108451;28;20242;-68
2022/09/01 03:55:49;;;;;;;24.17;19.67;;;;;;;;;;5107416;27;20194;-69
2022/09/01 03:58:17;;;;;;;26.20;21.27;;;;;;;;;;5101685;28;20215;-69
2022/09/01 04:00:47;;;;;;;25.55;20.67;;;;;;;;;;5119804;27;20210;-69
2022/09/01 04:03:20;;;;;;;22.55;19.98;;;;;;;;;;5123462;27;20192;-69
2022/09/01 04:05:55;;;;;;;25.48;21.52;;;;;;;;;;5105349;28;20212;-69
2022/09/01 04:08:29;;;;;;;25.70;21.33;;;;;;;;;;5105844;28;20648;-69
2022/09/01 04:11:01;;;;;;;27.65;21.45;;;;;;;;;;5106695;28;20223;-68
2022/09/01 04:13:36;;;;;;;24.40;21.45;;;;;;;;;;5099186;27;20203;-69
2022/09/01 04:18:03;;;;;;;24.10;20.92;;;;;;;;;;5107085;27;20714;-69
2022/09/01 04:18:59;;;;;;;23.65;21.15;;;;;;;;;;5123674;27;20203;-69
2022/09/01 04:21:29;;;;;;;27.65;23.05;;;;;;;;;;5132892;27;20248;-69
2022/09/01 04:24:04;;;;;;;26.20;22.02;;;;;;;;;;5110960;27;20208;-68
2022/09/01 04:26:33;;;;;;;23.67;21.08;;;;;;;;;;5102489;27;20214;-68
2022/09/01 04:29:01;;;;;;;24.75;20.63;;;;;;;;;;5098400;27;20204;-68
2022/09/01 04:31:29;;;;;;;23.23;20.33;;;;;;;;;;5110987;27;20227;-69
2022/09/01 04:33:57;;;;;;;24.17;19.88;;;;;;;;;;5106776;27;20204;-69
2022/09/01 04:36:26;;;;;;;24.38;20.20;;;;;;;;;;5102824;27;20206;-68
2022/09/01 04:38:55;;;;;;;21.42;18.95;;;;;;;;;;5101364;27;20222;-67
2022/09/01 04:41:24;;;;;;;22.08;19.23;;;;;;;;;;5088057;27;20663;-70
2022/09/01 04:43:55;;;;;;;20.52;18.33;;;;;;;;;;5095060;27;20208;-68
2022/09/01 04:46:23;;;;;;;20.25;18.08;;;;;;;;;;5122999;27;20203;-67
2022/09/01 04:48:56;;;;;;;21.05;18.83;;;;;;;;;;5098163;27;20216;-69
2022/09/01 04:51:26;;;;;;;20.02;17.88;;;;;;;;;;5105792;27;20329;-68
2022/09/01 04:53:56;;;;;;;19.65;17.55;;;;;;;;;;5102153;27;20203;-69
2022/09/01 04:56:24;;;;;;;20.63;17.20;;;;;;;;;;5104057;27;20204;-69
2022/09/01 04:58:55;;;;;;;20.10;18.00;;;;;;;;;;5102518;27;20223;-68
2022/09/01 05:01:26;;;;;;;19.63;17.25;;;;;;;;;;5098411;27;20230;-69
2022/09/01 05:04:00;;;;;;;20.00;17.63;;;;;;;;;;5100871;27;20340;-69
2022/09/01 05:06:32;;;;;;;23.05;18.23;;;;;;;;;;5101826;27;20283;-69
2022/09/01 05:09:01;;;;;;;20.15;17.77;;;;;;;;;;5099627;27;20207;-67
2022/09/01 05:11:28;;;;;;;20.77;17.50;;;;;;;;;;5096421;27;20735;-68
2022/09/01 05:13:56;;;;;;;20.38;17.88;;;;;;;;;;5097220;27;20207;-67
2022/09/01 05:16:24;;;;;;;20.67;18.02;;;;;;;;;;5104906;27;20433;-69
2022/09/01 05:18:54;;;;;;;18.85;16.75;;;;;;;;;;5109916;27;20661;-68
2022/09/01 05:21:28;;;;;;;18.90;15.93;;;;;;;;;;5105217;27;20288;-69
2022/09/01 05:23:59;;;;;;;19.33;16.95;;;;;;;;;;5105515;27;20208;-67
2022/09/01 05:26:28;;;;;;;18.55;16.17;;;;;;;;;;5100682;27;20689;-69
2022/09/01 05:28:57;;;;;;;18.33;15.98;;;;;;;;;;5107537;27;20207;-68
2022/09/01 05:31:26;;;;;;;19.17;17.13;;;;;;;;;;5105089;27;20613;-68
2022/09/01 05:33:56;;;;;;;20.40;17.33;;;;;;;;;;5100636;27;20200;-69
2022/09/01 05:36:25;;;;;;;21.63;18.10;;;;;;;;;;5104689;27;20807;-69
2022/09/01 05:38:53;;;;;;;26.87;20.87;;;;;;;;;;5104498;27;20207;-68
2022/09/01 05:41:22;;;;;;;28.40;21.90;;;;;;;;;;5095205;27;20274;-69
2022/09/01 05:43:51;;;;;;;25.85;21.50;;;;;;;;;;5110681;27;20705;-68
2022/09/01 05:46:26;;;;;;;25.17;20.83;;;;;;;;;;5108327;27;20211;-69
2022/09/01 05:48:55;;;;;;;26.33;21.80;;;;;;;;;;5106842;27;20227;-69
2022/09/01 05:51:25;;;;;;;25.85;21.85;;;;;;;;;;5097822;27;20243;-69
2022/09/01 05:54:13;;;;;;;25.00;21.33;;;;;;;;;;5106954;27;20339;-68
2022/09/01 05:56:41;;;;;;;23.50;20.15;;;;;;;;;;5108585;27;20260;-68
2022/09/01 05:59:11;;;;;;;24.27;19.90;;;;;;;;;;5109959;27;20215;-68
2022/09/01 06:01:55;;;;;;;21.80;19.13;;;;;;;;;;5107080;27;20706;-69
2022/09/01 06:04:24;;;;;;;24.65;19.27;;;;;;;;;;5099739;27;20722;-69
2022/09/01 06:06:52;;;;;;;24.25;19.50;;;;;;;;;;5101867;27;20224;-67
2022/09/01 06:09:40;;;;;;;21.70;17.95;;;;;;;;;;5127133;27;20624;-68
2022/09/01 06:12:16;;;;;;;20.98;17.67;;;;;;;;;;5109114;27;20219;-68
2022/09/01 06:14:46;;;;;;;19.00;16.92;;;;;;;;;;5110166;27;20199;-67
2022/09/01 06:17:15;;;;;;;18.90;16.80;;;;;;;;;;5110005;27;20208;-71
2022/09/01 06:19:43;;;;;;;19.95;16.63;;;;;;;;;;5106959;27;20206;-68
2022/09/01 06:22:11;;;;;;;17.85;15.88;;;;;;;;;;5111912;27;20223;-68
2022/09/01 06:24:38;;;;;;;18.08;16.17;;;;;;;;;;5104910;27;20264;-68
2022/09/01 06:27:09;;;;;;;19.63;16.02;;;;;;;;;;5105440;27;20314;-68
2022/09/01 06:29:40;;;;;;;17.85;15.85;;;;;;;;;;5103695;27;20207;-68
2022/09/01 06:32:11;;;;;;;17.08;14.57;;;;;;;;;;5105712;27;20737;-67
2022/09/01 06:34:43;;;;;;;15.07;13.57;;;;;;;;;;5109117;27;20202;-68
2022/09/01 06:37:12;;;;;;;14.05;12.55;;;;;;;;;;5100145;28;20337;-68
2022/09/01 06:39:40;;;;;;;13.65;12.07;;;;;;;;;;5101498;28;20211;-67
2022/09/01 06:42:11;;;;;;;15.07;12.35;;;;;;;;;;5097061;27;20230;-72
2022/09/01 06:44:40;;;;;;;12.48;11.23;;;;;;;;;;5098052;27;21998;-68
2022/09/01 06:47:07;;;;;;;13.05;11.75;;;;;;;;;;5104321;27;20203;-69
2022/09/01 06:49:36;;;;;;;13.45;11.88;;;;;;;;;;5121095;27;20215;-67
2022/09/01 06:52:04;;;;;;;11.50;10.32;;;;;;;;;;5105992;27;20276;-67
2022/09/01 06:54:33;;;;;;;10.65;9.55;;;;;;;;;;5100970;27;21008;-67
2022/09/01 06:57:02;;;;;;;11.93;10.73;;;;;;;;;;5095472;27;20690;-69
2022/09/01 06:59:50;;;;;;;11.68;10.48;;;;;;;;;;5100034;27;20630;-69
2022/09/01 07:02:19;;;;;;;11.45;10.35;;;;;;;;;;5099311;27;20604;-70
2022/09/01 07:04:52;;;;;;;11.07;9.90;;;;;;;;;;5098281;27;20210;-68
2022/09/01 07:07:21;;;;;;;11.48;10.38;;;;;;;;;;5097245;27;20222;-70
2022/09/01 07:10:08;;;;;;;12.15;10.70;;;;;;;;;;5106808;27;20219;-68
2022/09/01 07:12:54;;;;;;;11.25;10.15;;;;;;;;;;5107476;27;20264;-72
2022/09/01 07:15:42;;;;;;;10.48;9.48;;;;;;;;;;5099021;27;20204;-69
2022/09/01 07:18:30;;;;;;;10.30;9.30;;;;;;;;;;5099437;27;20362;-67
2022/09/01 07:20:58;;;;;;;11.68;10.57;;;;;;;;;;5102654;27;20207;-68
2022/09/01 07:23:46;;;;;;;10.75;9.63;;;;;;;;;;5107131;27;20268;-68
2022/09/01 07:26:34;;;;;;;10.65;9.55;;;;;;;;;;5092723;27;20283;-68
2022/09/01 07:29:04;;;;;;;9.32;8.43;;;;;;;;;;5088379;27;20199;-71
2022/09/01 07:31:37;;;;;;;8.60;7.68;;;;;;;;;;5103036;27;20230;-71
2022/09/01 07:34:25;;;;;;;9.15;8.25;;;;;;;;;;5100049;27;20699;-73
2022/09/01 07:37:13;;;;;;;9.10;8.20;;;;;;;;;;5088997;27;20281;-73
2022/09/01 07:40:01;;;;;;;8.25;7.50;;;;;;;;;;5097709;27;20204;-70
2022/09/01 07:42:53;;;;;;;7.57;6.88;;;;;;;;;;5090540;27;20310;-68
2022/09/01 07:45:29;;;;;;;7.22;6.53;;;;;;;;;;5084560;27;20191;-70
2022/09/01 07:48:02;;;;;;;6.88;5.95;;;;;;;;;;5093089;27;20219;-72
2022/09/01 07:50:30;;;;;;;6.65;6.05;;;;;;;;;;5099945;27;20227;-69
2022/09/01 07:53:23;;;;;;;7.68;6.28;;;;;;;;;;5095666;27;20211;-68
2022/09/01 07:55:51;;;;;;;6.10;5.55;;;;;;;;;;5082584;27;20322;-69
2022/09/01 07:58:23;;;;;;;5.80;5.30;;;;;;;;;;5086936;27;20216;-72
2022/09/01 08:00:52;;;;;;;5.68;5.18;;;;;;;;;;5090471;27;21413;-69
2022/09/01 08:03:20;;;;;;;6.25;5.65;;;;;;;;;;5094397;27;20287;-69
2022/09/01 08:05:52;;;;;;;6.10;5.60;;;;;;;;;;5090202;27;20298;-69
2022/09/01 08:08:20;;;;;;;5.97;5.47;;;;;;;;;;5108185;27;20643;-69
2022/09/01 08:10:55;;;;;;;5.50;5.10;;;;;;;;;;5107963;27;20310;-69
2022/09/01 08:13:32;;;;;;;5.97;5.43;;;;;;;;;;5109034;27;20201;-68
2022/09/01 08:16:07;;;;;;;5.85;5.35;;;;;;;;;;5106771;27;20781;-72
2022/09/01 08:18:46;;;;;;;6.43;5.93;;;;;;;;;;5111453;27;20214;-67
2022/09/01 08:21:16;;;;;;;6.40;5.90;;;;;;;;;;5088896;27;20230;-67
2022/09/01 08:23:44;;;;;;;6.40;5.75;;;;;;;;;;5107125;27;20511;-70
2022/09/01 08:26:13;;;;;;;6.18;5.55;;;;;;;;;;5108977;27;20207;-67
2022/09/01 08:28:41;;;;;;;5.45;4.97;;;;;;;;;;5101217;27;20240;-68
2022/09/01 08:31:14;;;;;;;5.22;4.82;;;;;;;;;;5107218;27;20318;-67
2022/09/01 08:33:43;;;;;;;5.65;5.15;;;;;;;;;;5103664;27;20200;-68
2022/09/01 08:36:12;;;;;;;5.68;5.18;;;;;;;;;;5102517;27;20203;-67
2022/09/01 08:38:40;;;;;;;5.60;5.20;;;;;;;;;;5102079;27;20726;-69
2022/09/01 08:41:26;;;;;;;6.30;5.70;;;;;;;;;;5105840;27;20227;-68
2022/09/01 08:44:16;;;;;;;6.10;5.60;;;;;;;;;;5120847;27;20206;-67
2022/09/01 08:46:44;;;;;;;6.13;5.63;;;;;;;;;;5102153;27;20573;-67
2022/09/01 08:49:14;;;;;;;6.28;5.78;;;;;;;;;;5107900;27;20207;-68
2022/09/01 08:52:02;;;;;;;6.93;5.85;;;;;;;;;;5103995;27;20237;-71
2022/09/01 08:54:39;;;;;;;5.80;5.32;;;;;;;;;;5110007;27;20693;-69
2022/09/01 08:57:10;;;;;;;6.35;5.75;;;;;;;;;;5116389;27;20199;-67
2022/09/01 08:59:37;;;;;;;6.32;5.72;;;;;;;;;;5096423;27;20665;-67
2022/09/01 09:02:11;;;;;;;5.95;5.45;;;;;;;;;;5106939;27;20672;-67
2022/09/01 09:04:51;;;;;;;6.00;5.50;;;;;;;;;;5102044;27;20580;-72
2022/09/01 09:07:31;;;;;;;5.97;5.47;;;;;;;;;;5107154;27;20323;-69
2022/09/01 09:10:05;;;;;;;6.55;5.95;;;;;;;;;;5129995;27;20284;-70
2022/09/01 09:12:42;;;;;;;5.63;5.13;;;;;;;;;;5107217;27;20227;-69
2022/09/01 09:15:24;;;;;;;5.80;5.22;;;;;;;;;;5111543;27;20205;-69
2022/09/01 09:17:58;;;;;;;6.05;5.55;;;;;;;;;;5110760;27;20207;-67
2022/09/01 09:20:27;;;;;;;5.25;4.85;;;;;;;;;;5108194;27;20290;-69
2022/09/01 09:22:55;;;;;;;5.10;4.70;;;;;;;;;;5103723;27;20365;-67
2022/09/01 09:25:28;;;;;;;5.93;5.18;;;;;;;;;;5104326;27;20645;-71
2022/09/01 09:27:55;;;;;;;5.53;5.03;;;;;;;;;;5111042;27;20232;-69
2022/09/01 09:30:31;;;;;;;4.95;4.55;;;;;;;;;;5109474;27;20198;-68
2022/09/01 09:33:03;;;;;;;5.53;5.03;;;;;;;;;;5132271;27;20230;-71
2022/09/01 09:35:53;;;;;;;5.30;4.80;;;;;;;;;;5119313;27;20454;-66
2022/09/01 09:38:27;;;;;;;6.43;5.28;;;;;;;;;;5107376;27;20200;-69
2022/09/01 09:41:03;;;;;;;6.32;5.82;;;;;;;;;;5102547;27;20207;-67
2022/09/01 09:44:03;;;;;;;5.63;5.07;;;;;;;;;;5107519;27;20196;-66
2022/09/01 09:46:38;;;;;;;6.85;4.82;;;;;;;;;;5093026;28;20256;-68
2022/09/01 09:49:18;;;;;;;5.07;4.68;;;;;;;;;;5101381;27;20211;-68
2022/09/01 09:52:01;;;;;;;4.90;4.50;;;;;;;;;;5105390;27;20238;-70
2022/09/01 09:54:32;;;;;;;5.03;4.63;;;;;;;;;;5097497;27;20195;-72
2022/09/01 09:57:06;;;;;;;5.15;4.70;;;;;;;;;;5103115;27;20231;-68
2022/09/01 09:59:38;;;;;;;5.53;4.88;;;;;;;;;;5110465;27;20645;-68
2022/09/01 10:02:25;;;;;;;4.57;4.18;;;;;;;;;;5112118;27;20688;-73
2022/09/01 10:04:55;;;;;;;4.88;4.47;;;;;;;;;;5109988;27;20210;-68
2022/09/01 10:07:29;;;;;;;4.18;3.88;;;;;;;;;;5123452;27;20235;-70
2022/09/01 10:09:59;;;;;;;4.90;4.50;;;;;;;;;;5111520;27;20211;-67
2022/09/01 10:12:28;;;;;;;4.57;4.18;;;;;;;;;;5092663;27;20702;-67
2022/09/01 10:15:09;;;;;;;4.82;4.43;;;;;;;;;;5105434;27;20249;-68
2022/09/01 10:17:41;;;;;;;4.32;4.03;;;;;;;;;;5113212;27;20283;-71
2022/09/01 10:20:21;;;;;;;4.00;3.70;;;;;;;;;;5113676;27;20255;-71
2022/09/01 10:22:49;;;;;;;5.25;4.47;;;;;;;;;;5122613;27;20215;-69
2022/09/01 10:25:23;;;;;;;4.93;4.47;;;;;;;;;;5107365;27;20232;-68
2022/09/01 10:27:52;;;;;;;5.18;3.90;;;;;;;;;;5097069;27;20661;-66
2022/09/01 10:30:21;;;;;;;4.57;4.18;;;;;;;;;;5101951;27;20612;-68
2022/09/01 10:32:54;;;;;;;4.95;4.55;;;;;;;;;;5105516;27;20705;-71
2022/09/01 10:35:29;;;;;;;4.88;4.38;;;;;;;;;;5099793;27;20206;-67
2022/09/01 10:37:58;;;;;;;4.93;4.53;;;;;;;;;;5101678;27;20212;-72
2022/09/01 10:40:27;;;;;;;7.68;4.65;;;;;;;;;;5094382;27;20196;-72
2022/09/01 10:43:17;;;;;;;5.10;4.65;;;;;;;;;;5099521;27;20231;-68
2022/09/01 10:45:45;;;;;;;5.00;4.50;;;;;;;;;;5095881;27;20217;-70
2022/09/01 10:48:24;;;;;;;5.75;4.55;;;;;;;;;;5076059;27;20293;-70
2022/09/01 10:51:13;;;;;;;5.63;5.13;;;;;;;;;;5078134;27;20231;-73
2022/09/01 10:53:48;;;;;;;5.43;5.03;;;;;;;;;;5074214;27;20389;-68
2022/09/01 10:56:20;;;;;;;5.80;5.28;;;;;;;;;;5084342;27;20636;-68
2022/09/01 10:59:07;;;;;;;5.72;5.22;;;;;;;;;;5095633;27;20215;-70
2022/09/01 11:01:54;;;;;;;6.30;5.80;;;;;;;;;;5086787;27;20231;-68
2022/09/01 11:04:45;;;;;;;5.68;5.18;;;;;;;;;;5090229;27;20248;-70
2022/09/01 11:07:22;;;;;;;4.80;4.40;;;;;;;;;;5088943;27;21223;-66
2022/09/01 11:10:19;;;;;;;4.10;3.80;;;;;;;;;;5104933;27;20219;-70
2022/09/01 11:13:22;;;;;;;3.72;3.40;;;;;;;;;;5086524;27;20760;-68
2022/09/01 11:15:50;;;;;;;4.50;4.10;;;;;;;;;;5068931;27;20200;-67
2022/09/01 11:18:28;;;;;;;4.60;4.20;;;;;;;;;;5092027;28;20249;-71
2022/09/01 11:21:13;;;;;;;5.82;4.68;;;;;;;;;;5091084;27;20244;-71
2022/09/01 11:23:41;;;;;;;5.60;4.78;;;;;;;;;;5092382;27;20335;-71
2022/09/01 11:26:28;;;;;;;4.22;3.92;;;;;;;;;;5089276;27;20587;-68
2022/09/01 11:28:55;;;;;;;3.83;3.38;;;;;;;;;;5079461;27;20736;-68
2022/09/01 11:31:25;;;;;;;3.40;3.15;;;;;;;;;;5089451;27;20238;-68
2022/09/01 11:34:00;;;;;;;4.25;3.85;;;;;;;;;;5087975;27;20208;-69
2022/09/01 11:36:46;;;;;;;4.82;4.43;;;;;;;;;;5085254;27;20195;-68
2022/09/01 11:39:28;;;;;;;5.07;4.43;;;;;;;;;;5088779;27;20925;-71
2022/09/01 11:41:56;;;;;;;4.30;4.00;;;;;;;;;;5090577;27;20223;-71
2022/09/01 11:44:34;;;;;;;3.55;3.35;;;;;;;;;;5086473;27;20618;-71
2022/09/01 11:47:03;;;;;;;4.15;3.75;;;;;;;;;;5087116;27;20238;-68
2022/09/01 11:49:36;;;;;;;6.38;4.25;;;;;;;;;;5079720;27;20207;-69
2022/09/01 11:52:06;;;;;;;4.35;3.60;;;;;;;;;;5086395;27;20309;-69
2022/09/01 11:54:39;;;;;;;3.83;3.53;;;;;;;;;;5086048;27;20208;-68
2022/09/01 11:57:16;;;;;;;3.55;3.25;;;;;;;;;;5073521;27;20207;-68
2022/09/01 11:59:45;;;;;;;4.00;3.70;;;;;;;;;;5080858;27;20300;-70
2022/09/01 12:02:32;;;;;;;3.95;3.65;;;;;;;;;;5086392;27;21094;-71
2022/09/01 12:05:23;;;;;;;3.75;3.15;;;;;;;;;;5084801;27;20212;-68
2022/09/01 12:07:51;;;;;;;4.00;3.70;;;;;;;;;;5091944;28;20681;-72
2022/09/01 12:10:27;;;;;;;4.20;3.90;;;;;;;;;;5085667;28;20205;-68
2022/09/01 12:13:01;;;;;;;4.22;3.92;;;;;;;;;;5105293;28;20271;-68
2022/09/01 12:15:29;;;;;;;4.60;4.20;;;;;;;;;;5108520;27;20223;-71
2022/09/01 12:18:29;;;;;;;4.13;3.83;;;;;;;;;;5103242;28;20607;-68
2022/09/01 12:20:57;;;;;;;4.30;3.90;;;;;;;;;;5077324;27;20677;-68
2022/09/01 12:23:25;;;;;;;4.07;3.78;;;;;;;;;;5113032;27;20252;-67
2022/09/01 12:25:54;;;;;;;4.45;4.05;;;;;;;;;;5102238;27;20208;-68
2022/09/01 12:28:29;;;;;;;3.58;3.35;;;;;;;;;;5108171;28;20272;-67
2022/09/01 12:31:02;;;;;;;4.40;3.63;;;;;;;;;;5096111;27;20239;-68
2022/09/01 12:33:34;;;;;;;4.07;3.35;;;;;;;;;;5102089;27;20205;-71
2022/09/01 12:36:20;;;;;;;5.03;3.70;;;;;;;;;;5103029;27;20649;-70
2022/09/01 12:38:48;;;;;;;3.05;2.85;;;;;;;;;;5105075;27;20230;-68
2022/09/01 12:41:33;;;;;;;4.10;3.70;;;;;;;;;;5100930;27;20647;-71
2022/09/01 12:44:20;;;;;;;3.15;2.85;;;;;;;;;;5096577;27;20204;-68
2022/09/01 12:46:47;;;;;;;3.60;3.40;;;;;;;;;;5105849;27;20259;-68
2022/09/01 12:49:19;;;;;;;3.97;3.35;;;;;;;;;;5128890;27;20268;-68
2022/09/01 12:51:47;;;;;;;3.30;3.10;;;;;;;;;;5099348;27;20219;-68
2022/09/01 12:54:15;;;;;;;3.40;3.20;;;;;;;;;;5109774;27;20231;-67
2022/09/01 12:56:47;;;;;;;4.13;3.30;;;;;;;;;;5121524;27;20229;-70
2022/09/01 12:59:20;;;;;;;2.75;2.55;;;;;;;;;;5131157;27;20256;-66
2022/09/01 13:02:22;;;;;;;2.60;2.40;;;;;;;;;;5108529;27;20231;-68
2022/09/01 13:04:50;;;;;;;3.42;2.85;;;;;;;;;;5097271;27;20571;-70
2022/09/01 13:07:17;;;;;;;2.65;2.50;;;;;;;;;;5109788;27;20567;-68
2022/09/01 13:09:44;;;;;;;3.13;2.92;;;;;;;;;;5124064;27;20252;-70
2022/09/01 13:12:16;;;;;;;4.15;2.90;;;;;;;;;;5101330;27;20270;-67
2022/09/01 13:14:43;;;;;;;3.15;2.72;;;;;;;;;;5110899;27;20201;-68
2022/09/01 13:17:11;;;;;;;3.22;2.90;;;;;;;;;;5107429;27;20196;-66
2022/09/01 13:19:41;;;;;;;2.97;2.50;;;;;;;;;;5105324;27;20207;-68
2022/09/01 13:22:08;;;;;;;2.67;2.50;;;;;;;;;;5096970;27;20226;-72
2022/09/01 13:24:36;;;;;;;2.75;2.60;;;;;;;;;;5094264;27;20204;-69
2022/09/01 13:27:03;;;;;;;3.05;2.78;;;;;;;;;;5103659;27;20712;-68
2022/09/01 13:29:47;;;;;;;3.70;3.08;;;;;;;;;;5110095;27;20293;-70
2022/09/01 13:32:15;;;;;;;3.22;2.95;;;;;;;;;;5109814;27;20613;-68
2022/09/01 13:34:47;;;;;;;3.10;2.83;;;;;;;;;;5112519;27;20549;-68
2022/09/01 13:37:17;;;;;;;3.30;3.10;;;;;;;;;;5104253;27;20206;-68
2022/09/01 13:39:45;;;;;;;3.45;3.17;;;;;;;;;;5121645;27;20203;-70
2022/09/01 13:42:13;;;;;;;4.05;3.30;;;;;;;;;;5110007;27;20768;-65
2022/09/01 13:44:42;;;;;;;3.47;3.00;;;;;;;;;;5107467;27;20204;-66
2022/09/01 13:47:10;;;;;;;3.50;3.30;;;;;;;;;;5104180;27;20210;-67
2022/09/01 13:49:58;;;;;;;3.78;3.47;;;;;;;;;;5124942;27;20291;-68
2022/09/01 13:52:37;;;;;;;3.50;3.20;;;;;;;;;;5105940;27;20304;-68
2022/09/01 13:55:06;;;;;;;3.20;2.90;;;;;;;;;;5096638;27;20196;-70
2022/09/01 13:57:34;;;;;;;4.20;3.88;;;;;;;;;;5120642;27;20676;-73
2022/09/01 14:00:05;;;;;;;3.67;3.38;;;;;;;;;;5107754;27;20573;-66
2022/09/01 14:02:34;;;;;;;4.47;4.18;;;;;;;;;;5110421;27;20246;-67
2022/09/01 14:05:01;;;;;;;5.15;4.00;;;;;;;;;;5102216;27;20458;-67
2022/09/01 14:07:31;;;;;;;4.25;3.95;;;;;;;;;;5103083;27;20207;-67
2022/09/01 14:09:59;;;;;;;3.75;3.45;;;;;;;;;;5121788;27;20212;-69
2022/09/01 14:12:26;;;;;;;4.40;4.00;;;;;;;;;;5110325;27;20272;-67
2022/09/01 14:14:54;;;;;;;4.60;4.20;;;;;;;;;;5107643;27;20199;-68
2022/09/01 14:17:42;;;;;;;4.20;3.90;;;;;;;;;;5103595;27;20623;-68
2022/09/01 14:20:11;;;;;;;5.80;4.00;;;;;;;;;;5106682;27;20196;-67
2022/09/01 14:22:39;;;;;;;7.32;4.63;;;;;;;;;;5107791;27;20228;-66
2022/09/01 14:25:09;;;;;;;5.28;4.32;;;;;;;;;;5113915;27;20567;-67
2022/09/01 14:27:37;;;;;;;4.35;3.97;;;;;;;;;;5094455;27;20219;-71
2022/09/01 14:30:06;;;;;;;4.30;3.92;;;;;;;;;;5114179;27;20539;-68
2022/09/01 14:32:34;;;;;;;3.60;3.40;;;;;;;;;;5110800;27;20256;-68
2022/09/01 14:35:01;;;;;;;5.60;3.83;;;;;;;;;;5108549;27;20244;-68
2022/09/01 14:37:29;;;;;;;4.15;3.75;;;;;;;;;;5120762;27;20207;-70
2022/09/01 14:39:57;;;;;;;4.00;3.70;;;;;;;;;;5107251;27;20195;-68
2022/09/01 14:42:27;;;;;;;4.68;3.83;;;;;;;;;;5098310;27;20284;-70
2022/09/01 14:44:55;;;;;;;4.18;3.83;;;;;;;;;;5099136;27;20215;-68
2022/09/01 14:47:24;;;;;;;4.03;3.50;;;;;;;;;;5098332;27;20216;-67
2022/09/01 14:49:52;;;;;;;4.40;4.00;;;;;;;;;;5098663;27;20211;-68
2022/09/01 14:52:20;;;;;;;4.32;3.92;;;;;;;;;;5111155;27;20314;-68
2022/09/01 14:54:48;;;;;;;4.32;3.92;;;;;;;;;;5105269;27;20290;-69
2022/09/01 14:57:15;;;;;;;4.13;3.80;;;;;;;;;;5093958;27;20199;-66
2022/09/01 15:00:09;;;;;;;4.37;3.97;;;;;;;;;;5097699;27;20458;-66
2022/09/01 15:02:37;;;;;;;4.20;3.80;;;;;;;;;;5108043;27;20507;-68
2022/09/01 15:05:04;;;;;;;3.80;3.50;;;;;;;;;;5114119;27;20203;-70
2022/09/01 15:07:32;;;;;;;5.38;4.28;;;;;;;;;;5117848;27;20204;-71
2022/09/01 15:09:59;;;;;;;4.35;3.80;;;;;;;;;;5107573;27;20206;-69
2022/09/01 15:12:30;;;;;;;3.58;3.28;;;;;;;;;;5106085;27;20223;-72
2022/09/01 15:14:58;;;;;;;4.40;4.05;;;;;;;;;;5106894;27;20203;-67
2022/09/01 15:17:26;;;;;;;4.07;3.78;;;;;;;;;;5099139;27;20729;-71